Time;durP1;ratioP1;P1;durP2;ratioP2;P2;SDS_P1;SDS_P2;PMS_P1;PMS_P2;Temp;Humidity;BMP_temperature;BMP_pressure;BME280_temperature;BME280_humidity;BME280_pressure;Samples;Min_cycle;Max_cycle;Signal;HPM_P1;HPM_P2
2022/06/24 00:00:28;;;;;;;;;;;;;;;19.52;88.80;99330.03;1088258;54;19974;-76
2022/06/24 00:01:32;;;;;;;;;;;;;;;19.39;89.00;99330.97;1088310;54;19927;-76
2022/06/24 00:02:36;;;;;;;;;;;;;;;19.33;88.31;99327.28;1088341;54;19934;-76
2022/06/24 00:03:37;;;;;;;;;;;;;;;19.42;88.75;99325.94;1088305;54;19934;-76
2022/06/24 00:04:41;;;;;;;;;;;;;;;19.38;88.78;99322.00;1088204;54;19942;-76
2022/06/24 00:05:42;;;;;;;;;;;;;;;19.34;89.37;99323.50;1088299;54;19950;-76
2022/06/24 00:06:49;;;;;;;;;;;;;;;19.39;88.98;99317.44;1088206;54;19934;-77
2022/06/24 00:07:51;;;;;;;;;;;;;;;19.40;89.48;99321.81;1088274;54;19957;-77
2022/06/24 00:08:55;;;;;;;;;;;;;;;19.41;89.28;99323.47;1088258;54;19942;-77
2022/06/24 00:09:59;;;;;;;;;;;;;;;19.38;89.04;99316.59;1088247;54;19943;-78
2022/06/24 00:11:13;;;;;;;;;;;;;;;19.40;89.00;99322.63;1088188;54;19946;-78
2022/06/24 00:12:15;;;;;;;;;;;;;;;19.49;89.33;99315.06;1094832;39;20629;-77
2022/06/24 00:13:19;;;;;;;;;;;;;;;19.49;88.12;99324.00;1088158;54;19949;-78
2022/06/24 00:14:22;;;;;;;;;;;;;;;19.54;87.85;99323.34;1087777;54;20672;-77
2022/06/24 00:15:24;;;;;;;;;;;;;;;19.61;87.36;99317.88;1087849;54;19950;-78
2022/06/24 00:16:28;;;;;;;;;;;;;;;19.67;87.05;99313.44;1088100;54;20563;-79
2022/06/24 00:17:32;;;;;;;;;;;;;;;19.72;86.46;99309.03;1090082;46;20622;-78
2022/06/24 00:18:33;;;;;;;;;;;;;;;19.75;85.13;99310.44;1088251;54;19927;-77
2022/06/24 00:19:52;;;;;;;;;;;;;;;19.83;84.93;99307.44;1088192;54;19942;-78
2022/06/24 00:20:54;;;;;;;;;;;;;;;19.90;84.58;99310.13;1088140;54;19927;-78
2022/06/24 00:22:06;;;;;;;;;;;;;;;19.91;84.51;99298.22;1088225;54;19985;-78
2022/06/24 00:23:08;;;;;;;;;;;;;;;19.96;84.12;99298.38;1089701;46;19942;-77
2022/06/24 00:24:22;;;;;;;;;;;;;;;19.97;83.93;99301.94;1088220;54;19950;-77
2022/06/24 00:25:29;;;;;;;;;;;;;;;19.97;83.52;99301.94;1089556;46;19962;-79
2022/06/24 00:26:37;;;;;;;;;;;;;;;19.97;83.75;99291.91;1088177;54;19927;-79
2022/06/24 00:27:41;;;;;;;;;;;;;;;19.95;84.21;99299.41;1088253;46;20007;-77
2022/06/24 00:28:42;;;;;;;;;;;;;;;19.97;83.24;99293.78;1088632;47;19949;-80
2022/06/24 00:29:46;;;;;;;;;;;;;;;19.96;84.02;99290.22;1088228;54;20633;-77
2022/06/24 00:30:51;;;;;;;;;;;;;;;19.99;82.78;99306.06;1088168;54;20534;-78
2022/06/24 00:32:02;;;;;;;;;;;;;;;20.03;82.64;99298.31;1087714;54;19943;-81
2022/06/24 00:33:11;;;;;;;;;;;;;;;20.03;82.55;99309.97;1087846;54;19950;-81
2022/06/24 00:34:24;;;;;;;;;;;;;;;20.06;82.08;99304.09;1088157;54;19935;-82
2022/06/24 00:35:38;;;;;;;;;;;;;;;20.06;82.13;99314.97;1088201;54;19943;-81
2022/06/24 00:36:39;;;;;;;;;;;;;;;20.10;81.34;99312.63;1088159;54;19950;-81
2022/06/24 00:37:43;;;;;;;;;;;;;;;20.12;81.68;99312.41;1088229;54;19942;-79
2022/06/24 00:38:50;;;;;;;;;;;;;;;20.10;82.03;99316.19;1088182;54;19926;-81
2022/06/24 00:39:54;;;;;;;;;;;;;;;20.10;81.49;99309.91;1088227;54;19931;-80
2022/06/24 00:41:03;;;;;;;;;;;;;;;20.10;82.26;99310.75;1088133;54;19950;-82
2022/06/24 00:42:05;;;;;;;;;;;;;;;20.10;81.97;99299.91;1088195;54;19950;-83
2022/06/24 00:43:09;;;;;;;;;;;;;;;20.08;81.82;99302.00;1088184;54;19941;-82
2022/06/24 00:44:11;;;;;;;;;;;;;;;20.13;82.22;99297.78;1090111;47;20021;-81
2022/06/24 00:45:19;;;;;;;;;;;;;;;20.14;82.24;99297.56;1090037;39;20709;-81
2022/06/24 00:46:27;;;;;;;;;;;;;;;20.14;81.61;99300.28;1088158;54;19943;-82
2022/06/24 00:47:33;;;;;;;;;;;;;;;20.16;81.07;99294.63;1088207;54;19935;-83
2022/06/24 00:48:37;;;;;;;;;;;;;;;20.20;80.73;99301.25;1088131;54;19958;-82
2022/06/24 00:49:40;;;;;;;;;;;;;;;20.23;81.11;99298.06;1087807;54;19942;-82
2022/06/24 00:50:44;;;;;;;;;;;;;;;20.21;80.33;99294.78;1087780;54;19961;-81
2022/06/24 00:51:48;;;;;;;;;;;;;;;20.05;80.86;99298.91;1087422;54;19949;-82
2022/06/24 00:52:51;;;;;;;;;;;;;;;19.93;81.43;99298.84;1088249;54;19949;-81
2022/06/24 00:53:56;;;;;;;;;;;;;;;19.95;82.67;99297.56;1088240;54;19983;-80
2022/06/24 00:54:58;;;;;;;;;;;;;;;19.94;83.31;99297.75;1088200;54;19942;-81
2022/06/24 00:56:04;;;;;;;;;;;;;;;19.92;83.20;99308.03;1088170;54;20579;-82
2022/06/24 00:57:06;;;;;;;;;;;;;;;19.87;83.43;99306.00;1088239;54;19927;-80
2022/06/24 00:58:14;;;;;;;;;;;;;;;19.86;84.22;99314.31;1088346;54;19942;-81
2022/06/24 00:59:15;;;;;;;;;;;;;;;19.83;84.29;99312.06;1093085;39;20766;-82
2022/06/24 01:00:20;;;;;;;;;;;;;;;19.78;83.97;99308.13;1088518;54;19939;-83
2022/06/24 01:01:27;;;;;;;;;;;;;;;19.86;83.97;99303.47;1088390;54;20692;-81
2022/06/24 01:02:31;;;;;;;;;;;;;;;19.82;84.02;99313.09;1088535;54;19943;-81
2022/06/24 01:03:37;;;;;;;;;;;;;;;19.82;84.76;99302.25;1088525;54;19946;-81
2022/06/24 01:04:42;;;;;;;;;;;;;;;19.73;84.42;99296.28;1088558;54;19942;-82
2022/06/24 01:05:46;;;;;;;;;;;;;;;19.75;84.40;99303.13;1088535;54;19958;-80
2022/06/24 01:06:47;;;;;;;;;;;;;;;19.83;84.85;99293.06;1088247;54;19934;-79
2022/06/24 01:07:51;;;;;;;;;;;;;;;19.85;83.82;99296.38;1088157;54;19950;-80
2022/06/24 01:08:52;;;;;;;;;;;;;;;19.86;84.31;99274.50;1088113;54;19946;-80
2022/06/24 01:09:56;;;;;;;;;;;;;;;19.88;83.65;99287.81;1088979;39;20606;-79
2022/06/24 01:11:00;;;;;;;;;;;;;;;19.82;83.83;99275.94;1088463;54;19942;-80
2022/06/24 01:12:04;;;;;;;;;;;;;;;19.79;83.22;99271.81;1088498;54;19949;-78
2022/06/24 01:13:09;;;;;;;;;;;;;;;19.80;83.52;99280.75;1088635;54;19934;-81
2022/06/24 01:14:11;;;;;;;;;;;;;;;19.77;84.05;99273.09;1089269;46;19942;-80
2022/06/24 01:15:15;;;;;;;;;;;;;;;19.76;84.61;99271.44;1088597;54;19995;-81
2022/06/24 01:16:16;;;;;;;;;;;;;;;19.82;84.32;99269.72;1088518;54;19942;-81
2022/06/24 01:17:20;;;;;;;;;;;;;;;19.79;85.03;99260.97;1089269;46;19943;-82
2022/06/24 01:18:21;;;;;;;;;;;;;;;19.82;84.01;99258.88;1088591;54;19959;-80
2022/06/24 01:19:29;;;;;;;;;;;;;;;19.83;84.10;99252.41;1088576;54;19954;-80
2022/06/24 01:20:30;;;;;;;;;;;;;;;19.89;84.14;99252.31;1088566;54;19950;-82
2022/06/24 01:50:06;;;;;;;;;;;;;;;20.25;82.67;99220.00;1075151;54;20022;31
2022/06/24 01:56:24;;;;;;;;;;;;;;;20.34;81.21;99207.75;1075032;54;19942;31
2022/06/24 01:57:28;;;;;;;;;;;;;;;20.38;80.60;99208.13;1075437;54;20386;31
2022/06/24 01:59:33;;;;;;;;;;;;;;;20.29;81.28;99215.78;1086195;46;20909;31
2022/06/24 02:00:38;;;;;;;;;;;;;;;20.26;81.50;99214.31;1075086;54;19946;31
2022/06/24 02:02:43;;;;;;;;;;;;;;;20.18;80.86;99217.34;1075637;39;20074;31
2022/06/24 02:03:48;;;;;;;;;;;;;;;20.27;81.50;99213.28;1075282;54;19946;31
2022/06/24 02:06:53;;;;;;;;;;;;;;;20.38;80.00;99208.97;1076790;39;20011;31
2022/06/24 02:08:01;;;;;;;;;;;;;;;20.41;80.60;99210.41;1075447;54;19998;31
2022/06/24 02:17:30;;;;;;;;;;;;;;;20.05;83.10;99210.22;1075205;54;19946;31
2022/06/24 02:18:33;;;;;;;;;;;;;;;19.94;84.03;99221.81;1093937;46;19954;31
2022/06/24 02:20:41;;;;;;;;;;;;;;;19.83;84.58;99228.00;1089253;54;19978;-89
2022/06/24 02:22:45;;;;;;;;;;;;;;;19.85;84.83;99225.84;1076144;39;20052;31
2022/06/24 02:23:56;;;;;;;;;;;;;;;19.95;84.00;99231.63;1075364;54;20766;31
2022/06/24 02:30:16;;;;;;;;;;;;;;;20.16;82.75;99211.34;1088642;54;19934;-88
2022/06/24 02:35:50;;;;;;;;;;;;;;;19.95;84.14;99208.06;1074945;54;19954;31
2022/06/24 02:36:54;;;;;;;;;;;;;;;19.95;84.22;99205.34;1075210;54;20017;31
2022/06/24 02:39:00;;;;;;;;;;;;;;;19.79;85.58;99214.88;1075853;39;20169;31
2022/06/24 02:45:51;;;;;;;;;;;;;;;19.56;87.08;99210.13;1074696;54;19946;31
2022/06/24 02:46:56;;;;;;;;;;;;;;;19.56;86.94;99209.28;1075282;54;19950;31
2022/06/24 03:01:44;;;;;;;;;;;;;;;19.98;83.51;99197.81;1075059;54;20014;31
2022/06/24 03:02:52;;;;;;;;;;;;;;;20.00;82.98;99196.53;1076062;39;21322;31
2022/06/24 03:04:02;;;;;;;;;;;;;;;20.01;83.26;99195.47;1075147;54;19952;31
2022/06/24 03:07:11;;;;;;;;;;;;;;;20.06;82.45;99192.06;1102711;39;20466;-84
2022/06/24 03:08:13;;;;;;;;;;;;;;;20.09;82.20;99200.59;1088501;54;19990;-86
2022/06/24 03:09:17;;;;;;;;;;;;;;;20.07;82.36;99194.56;1085558;46;19953;-74
2022/06/24 03:10:18;;;;;;;;;;;;;;;20.07;82.59;99202.69;1084032;54;19973;-75
2022/06/24 03:11:22;;;;;;;;;;;;;;;20.10;82.00;99199.53;1083724;39;20459;-75
2022/06/24 03:12:23;;;;;;;;;;;;;;;20.12;81.59;99196.56;1083344;54;19973;-76
2022/06/24 03:13:28;;;;;;;;;;;;;;;20.12;81.58;99193.06;1085414;54;19950;-74
2022/06/24 03:14:29;;;;;;;;;;;;;;;20.10;81.64;99195.97;1085231;54;19975;-77
2022/06/24 03:15:33;;;;;;;;;;;;;;;20.09;81.49;99189.72;1085488;54;19966;-74
2022/06/24 03:16:34;;;;;;;;;;;;;;;20.03;81.91;99201.47;1085562;54;19950;-76
2022/06/24 03:17:38;;;;;;;;;;;;;;;20.07;81.55;99197.25;1084987;54;19953;-74
2022/06/24 03:18:43;;;;;;;;;;;;;;;20.10;81.25;99198.69;1085197;54;19954;-74
2022/06/24 03:19:46;;;;;;;;;;;;;;;20.07;81.11;99199.16;1085520;54;19971;-77
2022/06/24 03:20:50;;;;;;;;;;;;;;;20.06;81.03;99194.78;1084635;54;19938;-75
2022/06/24 03:21:51;;;;;;;;;;;;;;;20.09;81.06;99200.59;1083953;54;20441;-74
2022/06/24 03:22:55;;;;;;;;;;;;;;;20.01;82.17;99197.34;1084089;54;19946;-73
2022/06/24 03:23:56;;;;;;;;;;;;;;;20.01;81.84;99200.91;1083767;54;19957;-76
2022/06/24 03:25:00;;;;;;;;;;;;;;;20.03;81.91;99201.47;1084586;39;20622;-73
2022/06/24 03:26:01;;;;;;;;;;;;;;;20.01;81.27;99192.75;1085867;54;19946;-73
2022/06/24 03:27:06;;;;;;;;;;;;;;;19.97;81.31;99194.25;1085933;54;20850;-73
2022/06/24 03:28:08;;;;;;;;;;;;;;;19.99;80.82;99189.44;1086433;39;20388;-77
2022/06/24 03:29:11;;;;;;;;;;;;;;;19.97;81.21;99196.16;1085489;54;19956;-74
2022/06/24 03:30:13;;;;;;;;;;;;;;;19.89;81.64;99198.09;1085632;39;20676;-76
2022/06/24 03:31:16;;;;;;;;;;;;;;;19.93;81.75;99195.78;1084514;54;19946;-74
2022/06/24 03:32:18;;;;;;;;;;;;;;;19.79;82.24;99195.88;1084806;54;20400;-75
2022/06/24 03:33:22;;;;;;;;;;;;;;;19.72;82.60;99200.56;1085111;54;19954;-75
2022/06/24 03:34:23;;;;;;;;;;;;;;;19.57;82.83;99194.66;1085189;54;19947;-75
2022/06/24 03:35:30;;;;;;;;;;;;;;;19.58;83.31;99199.03;1084529;54;19973;-74
2022/06/24 03:36:33;;;;;;;;;;;;;;;19.66;82.88;99200.63;1083750;54;19950;-75
2022/06/24 03:37:35;;;;;;;;;;;;;;;19.63;83.14;99202.72;1084022;54;19947;-74
2022/06/24 03:38:39;;;;;;;;;;;;;;;19.49;83.69;99202.03;1083712;54;19946;-75
2022/06/24 03:39:40;;;;;;;;;;;;;;;19.59;83.14;99203.41;1083842;54;19950;-74
2022/06/24 03:40:44;;;;;;;;;;;;;;;19.58;83.44;99210.72;1083812;54;19951;-73
2022/06/24 03:41:45;;;;;;;;;;;;;;;19.63;82.89;99207.34;1085193;39;20436;-76
2022/06/24 03:42:49;;;;;;;;;;;;;;;19.66;82.74;99201.44;1083832;54;19953;-73
2022/06/24 03:43:50;;;;;;;;;;;;;;;19.64;82.83;99212.53;1083858;54;19946;-73
2022/06/24 03:44:54;;;;;;;;;;;;;;;19.66;82.62;99208.75;1083772;54;19946;-76
2022/06/24 03:45:59;;;;;;;;;;;;;;;19.46;83.59;99207.09;1082964;54;19953;-75
2022/06/24 03:47:03;;;;;;;;;;;;;;;19.36;83.97;99206.75;1083139;54;19970;-74
2022/06/24 03:48:05;;;;;;;;;;;;;;;19.39;84.46;99195.50;1083048;54;19985;-78
2022/06/24 03:49:08;;;;;;;;;;;;;;;19.45;84.24;99195.44;1083444;54;19954;-74
2022/06/24 03:50:10;;;;;;;;;;;;;;;19.51;83.12;99201.00;1083606;54;20757;-76
2022/06/24 03:51:16;;;;;;;;;;;;;;;19.54;83.24;99193.25;1083370;54;19947;-74
2022/06/24 03:52:17;;;;;;;;;;;;;;;19.47;83.06;99197.91;1082709;54;19962;-74
2022/06/24 03:53:21;;;;;;;;;;;;;;;19.54;83.61;99200.56;1082804;54;19947;-78
2022/06/24 03:54:22;;;;;;;;;;;;;;;19.49;83.04;99204.75;1083183;54;19950;-75
2022/06/24 03:55:26;;;;;;;;;;;;;;;19.52;82.91;99202.66;1083693;39;20372;-74
2022/06/24 03:56:27;;;;;;;;;;;;;;;19.41;83.14;99205.03;1083250;54;19973;-75
2022/06/24 03:57:31;;;;;;;;;;;;;;;19.47;83.14;99197.91;1083331;54;19950;-75
2022/06/24 03:58:32;;;;;;;;;;;;;;;19.52;83.12;99200.75;1083805;47;19947;-74
2022/06/24 03:59:36;;;;;;;;;;;;;;;19.54;82.50;99193.25;1083257;54;19951;-74
2022/06/24 04:00:40;;;;;;;;;;;;;;;19.58;82.34;99190.91;1083456;54;19995;-74
2022/06/24 04:01:41;;;;;;;;;;;;;;;19.56;82.13;99199.28;1083343;54;19969;-74
2022/06/24 04:02:45;;;;;;;;;;;;;;;19.53;82.10;99191.56;1083461;54;19951;-75
2022/06/24 04:03:46;;;;;;;;;;;;;;;19.61;81.74;99195.88;1083517;54;19989;-74
2022/06/24 04:04:50;;;;;;;;;;;;;;;19.59;81.98;99189.84;1083135;54;20002;-73
2022/06/24 04:05:51;;;;;;;;;;;;;;;19.63;81.25;99197.31;1083272;54;19970;-75
2022/06/24 04:06:58;;;;;;;;;;;;;;;19.61;81.60;99190.47;1082843;54;19946;-74
2022/06/24 04:07:59;;;;;;;;;;;;;;;19.57;81.65;99189.25;1083464;54;19946;-73
2022/06/24 04:09:04;;;;;;;;;;;;;;;19.55;81.86;99183.25;1083267;54;19970;-73
2022/06/24 04:10:08;;;;;;;;;;;;;;;19.54;82.13;99187.00;1083265;54;19946;-73
2022/06/24 04:11:10;;;;;;;;;;;;;;;19.52;81.43;99183.69;1083252;54;20077;-74
2022/06/24 04:12:13;;;;;;;;;;;;;;;19.56;81.52;99183.00;1083976;54;19947;-74
2022/06/24 04:13:15;;;;;;;;;;;;;;;19.55;81.07;99183.25;1083909;54;19947;-73
2022/06/24 04:15:13;;;;;;;;;;;;;;;19.57;80.99;99191.94;1083723;54;20492;-74
2022/06/24 04:15:43;;;;;;;;;;;;;;;19.44;81.55;99188.34;1083653;54;19946;-73
2022/06/24 04:16:47;;;;;;;;;;;;;;;19.42;81.98;99190.44;1084112;39;20393;-74
2022/06/24 04:17:49;;;;;;;;;;;;;;;19.39;82.59;99188.19;1083638;54;19950;-74
2022/06/24 04:18:53;;;;;;;;;;;;;;;19.37;82.63;99197.59;1083982;54;19954;-74
2022/06/24 04:19:54;;;;;;;;;;;;;;;19.36;82.64;99202.19;1083611;54;19945;-74
2022/06/24 04:20:58;;;;;;;;;;;;;;;19.37;82.60;99192.97;1083907;54;19957;-73
2022/06/24 04:22:02;;;;;;;;;;;;;;;19.42;82.15;99195.88;1083858;54;19946;-75
2022/06/24 04:23:06;;;;;;;;;;;;;;;19.40;82.38;99197.16;1083610;54;19946;-73
2022/06/24 04:24:07;;;;;;;;;;;;;;;19.35;82.44;99200.53;1084625;54;19977;-74
2022/06/24 04:25:11;;;;;;;;;;;;;;;19.31;82.40;99199.31;1085231;54;19938;-74
2022/06/24 04:26:12;;;;;;;;;;;;;;;19.23;82.82;99200.41;1084718;54;20029;-75
2022/06/24 04:27:16;;;;;;;;;;;;;;;19.31;83.00;99196.59;1084434;54;19947;-74
2022/06/24 04:28:17;;;;;;;;;;;;;;;19.35;82.28;99194.25;1084305;54;19962;-75
2022/06/24 04:29:21;;;;;;;;;;;;;;;19.29;82.67;99190.56;1084458;54;19958;-74
2022/06/24 04:30:25;;;;;;;;;;;;;;;19.27;82.69;99188.09;1084722;54;19946;-74
2022/06/24 04:31:26;;;;;;;;;;;;;;;19.31;82.62;99191.19;1084555;54;19939;-74
2022/06/24 04:32:30;;;;;;;;;;;;;;;19.36;81.97;99187.78;1085038;47;20426;-73
2022/06/24 04:33:32;;;;;;;;;;;;;;;19.41;81.60;99180.66;1084612;54;19946;-73
2022/06/24 04:34:37;;;;;;;;;;;;;;;19.38;82.02;99186.50;1084775;54;19946;-73
2022/06/24 04:35:39;;;;;;;;;;;;;;;19.38;82.22;99183.00;1084718;54;19946;-74
2022/06/24 04:36:43;;;;;;;;;;;;;;;19.40;82.03;99181.72;1084655;54;19967;-75
2022/06/24 04:37:50;;;;;;;;;;;;;;;19.46;81.54;99186.22;1085017;54;19938;-75
2022/06/24 04:38:51;;;;;;;;;;;;;;;19.48;81.61;99184.13;1084744;54;19950;-76
2022/06/24 04:39:55;;;;;;;;;;;;;;;19.45;81.33;99181.88;1084468;54;19962;-75
2022/06/24 04:40:56;;;;;;;;;;;;;;;19.40;81.80;99181.72;1085128;54;19950;-75
2022/06/24 04:42:00;;;;;;;;;;;;;;;19.48;81.61;99186.84;1084656;54;19947;-76
2022/06/24 04:43:01;;;;;;;;;;;;;;;19.53;80.97;99186.16;1085866;39;20384;-75
2022/06/24 04:44:06;;;;;;;;;;;;;;;19.59;80.95;99184.44;1084798;47;19938;-75
2022/06/24 04:45:07;;;;;;;;;;;;;;;19.59;81.08;99189.84;1083938;54;19985;-76
2022/06/24 04:46:11;;;;;;;;;;;;;;;19.64;80.15;99190.84;1083266;54;19958;-76
2022/06/24 04:47:12;;;;;;;;;;;;;;;19.60;80.84;99194.22;1084014;54;19971;-76
2022/06/24 04:48:16;;;;;;;;;;;;;;;19.37;81.02;99195.69;1083908;54;20010;-75
2022/06/24 04:49:17;;;;;;;;;;;;;;;19.43;80.95;99194.81;1083840;54;19946;-75
2022/06/24 04:50:21;;;;;;;;;;;;;;;19.41;81.32;99196.09;1083725;54;20071;-74
2022/06/24 04:51:22;;;;;;;;;;;;;;;19.52;80.77;99195.34;1083121;54;20449;-75
2022/06/24 04:52:26;;;;;;;;;;;;;;;19.58;80.29;99194.47;1083464;54;19950;-75
2022/06/24 04:53:30;;;;;;;;;;;;;;;19.54;80.21;99198.66;1083221;54;19998;-76
2022/06/24 04:54:34;;;;;;;;;;;;;;;19.63;80.00;99191.88;1083665;54;19969;-74
2022/06/24 04:55:35;;;;;;;;;;;;;;;19.70;79.85;99190.97;1083589;54;19954;-74
2022/06/24 04:56:39;;;;;;;;;;;;;;;19.70;79.43;99197.25;1083704;54;19946;-74
2022/06/24 04:57:40;;;;;;;;;;;;;;;19.66;79.53;99196.03;1083841;54;19947;-76
2022/06/24 04:58:44;;;;;;;;;;;;;;;19.66;79.85;99189.78;1083700;54;19954;-74
2022/06/24 04:59:45;;;;;;;;;;;;;;;19.61;79.74;99191.28;1083790;54;19945;-74
2022/06/24 05:00:49;;;;;;;;;;;;;;;19.70;79.47;99180.13;1084615;54;19947;-75
2022/06/24 05:01:50;;;;;;;;;;;;;;;19.77;79.30;99179.00;1085403;39;20674;-75
2022/06/24 05:02:54;;;;;;;;;;;;;;;19.79;79.23;99179.63;1082923;54;19958;-75
2022/06/24 05:03:55;;;;;;;;;;;;;;;19.85;79.23;99175.22;1082494;54;19954;-75
2022/06/24 05:04:59;;;;;;;;;;;;;;;19.90;78.82;99179.94;1082835;54;19953;-75
2022/06/24 05:06:01;;;;;;;;;;;;;;;19.91;78.97;99177.00;1084192;47;19958;-75
2022/06/24 05:07:05;;;;;;;;;;;;;;;19.96;78.65;99170.91;1083950;54;19974;-75
2022/06/24 05:08:06;;;;;;;;;;;;;;;19.94;78.52;99175.72;1084402;54;19970;-76
2022/06/24 05:09:13;;;;;;;;;;;;;;;19.97;78.03;99169.84;1083790;54;19946;-75
2022/06/24 05:10:14;;;;;;;;;;;;;;;19.98;78.23;99170.69;1084367;54;19973;-75
2022/06/24 05:11:18;;;;;;;;;;;;;;;20.00;78.15;99174.81;1083995;54;19954;-76
2022/06/24 05:12:19;;;;;;;;;;;;;;;20.01;77.96;99176.47;1083979;54;19946;-75
2022/06/24 05:13:23;;;;;;;;;;;;;;;20.03;77.61;99168.91;1083690;54;19977;-74
2022/06/24 05:14:27;;;;;;;;;;;;;;;20.07;77.67;99174.75;1083303;54;19946;-75
2022/06/24 05:15:28;;;;;;;;;;;;;;;20.07;77.27;99177.47;1083698;54;20498;-76
2022/06/24 05:16:32;;;;;;;;;;;;;;;20.08;77.12;99177.22;1083525;54;19943;-76
2022/06/24 05:17:33;;;;;;;;;;;;;;;20.13;77.19;99175.69;1083856;54;19943;-75
2022/06/24 05:18:37;;;;;;;;;;;;;;;20.10;77.79;99180.53;1083471;54;20054;-76
2022/06/24 05:19:41;;;;;;;;;;;;;;;20.13;77.36;99181.13;1083854;39;20821;-77
2022/06/24 05:20:42;;;;;;;;;;;;;;;20.13;77.17;99176.53;1082694;54;19970;-76
2022/06/24 05:21:46;;;;;;;;;;;;;;;20.16;76.89;99178.78;1082804;54;20460;-76
2022/06/24 05:22:47;;;;;;;;;;;;;;;20.20;76.87;99179.16;1083263;54;19953;-75
2022/06/24 05:23:51;;;;;;;;;;;;;;;20.21;76.87;99180.81;1083752;39;20395;-75
2022/06/24 05:24:55;;;;;;;;;;;;;;;20.26;76.67;99175.53;1083190;54;19958;-75
2022/06/24 05:25:59;;;;;;;;;;;;;;;20.31;76.49;99170.22;1082715;54;20741;-74
2022/06/24 05:27:02;;;;;;;;;;;;;;;20.29;76.13;99174.22;1082660;54;19947;-76
2022/06/24 05:28:04;;;;;;;;;;;;;;;20.31;76.57;99185.69;1083795;54;19970;-75
2022/06/24 05:29:08;;;;;;;;;;;;;;;20.25;76.64;99187.44;1083569;54;19977;-76
2022/06/24 05:30:10;;;;;;;;;;;;;;;20.29;76.40;99183.22;1082899;46;19962;-74
2022/06/24 05:31:14;;;;;;;;;;;;;;;20.28;76.99;99181.56;1082548;54;20038;-75
2022/06/24 05:32:15;;;;;;;;;;;;;;;20.24;77.23;99185.78;1082523;54;19989;-75
2022/06/24 05:33:19;;;;;;;;;;;;;;;20.13;77.55;99170.25;1082773;54;19946;-75
2022/06/24 05:34:20;;;;;;;;;;;;;;;20.20;77.09;99177.25;1082700;54;20042;-76
2022/06/24 05:35:24;;;;;;;;;;;;;;;20.29;76.74;99172.34;1082713;54;19954;-76
2022/06/24 05:36:25;;;;;;;;;;;;;;;20.33;76.39;99170.81;1082909;54;19947;-78
2022/06/24 05:37:29;;;;;;;;;;;;;;;20.36;75.82;99167.66;1082814;54;19946;-76
2022/06/24 05:38:30;;;;;;;;;;;;;;;20.42;75.96;99166.72;1082677;54;19946;-75
2022/06/24 05:39:34;;;;;;;;;;;;;;;20.45;75.65;99170.03;1082895;54;19946;-75
2022/06/24 05:40:38;;;;;;;;;;;;;;;20.45;75.95;99159.19;1084020;54;19957;-75
2022/06/24 05:41:43;;;;;;;;;;;;;;;20.45;75.80;99162.72;1084419;54;19950;-74
2022/06/24 05:42:44;;;;;;;;;;;;;;;20.44;76.07;99160.25;1085029;54;20500;-75
2022/06/24 05:43:48;;;;;;;;;;;;;;;20.50;75.52;99167.47;1084592;54;19958;-75
2022/06/24 05:44:49;;;;;;;;;;;;;;;20.49;75.48;99160.41;1085367;54;19958;-77
2022/06/24 05:45:53;;;;;;;;;;;;;;;20.48;75.83;99158.72;1085208;54;19951;-76
2022/06/24 05:46:55;;;;;;;;;;;;;;;20.42;76.04;99157.78;1085885;54;19947;-76
2022/06/24 05:47:58;;;;;;;;;;;;;;;20.57;75.78;99169.00;1086062;54;19946;-76
2022/06/24 05:48:59;;;;;;;;;;;;;;;20.65;75.21;99167.03;1085838;54;19947;-75
2022/06/24 05:50:03;;;;;;;;;;;;;;;20.70;75.15;99162.56;1086046;54;19970;-75
2022/06/24 05:51:08;;;;;;;;;;;;;;;20.71;74.62;99166.94;1085089;54;19953;-75
2022/06/24 05:52:12;;;;;;;;;;;;;;;20.75;74.78;99163.78;1085301;54;19978;-78
2022/06/24 05:55:48;;;;;;;;;;;;;;;20.85;74.08;99170.28;1085730;54;19965;-76
2022/06/24 05:56:52;;;;;;;;;;;;;;;20.85;74.63;99174.91;1084807;54;19951;-75
2022/06/24 05:57:53;;;;;;;;;;;;;;;20.81;74.65;99179.13;1085207;54;19947;-75
2022/06/24 05:58:57;;;;;;;;;;;;;;;20.81;74.69;99174.53;1085036;54;19966;-75
2022/06/24 06:00:01;;;;;;;;;;;;;;;20.89;74.59;99178.78;1086583;54;19947;-77
2022/06/24 06:01:10;;;;;;;;;;;;;;;20.86;74.39;99174.66;1088425;39;20234;-79
2022/06/24 06:02:14;;;;;;;;;;;;;;;20.81;74.70;99184.56;1085381;54;19947;-78
2022/06/24 06:03:15;;;;;;;;;;;;;;;20.80;74.98;99182.91;1085276;54;19946;-77
2022/06/24 06:04:19;;;;;;;;;;;;;;;20.80;74.80;99177.47;1085345;54;19954;-76
2022/06/24 06:05:23;;;;;;;;;;;;;;;20.91;74.72;99176.66;1085309;54;19946;-76
2022/06/24 06:06:24;;;;;;;;;;;;;;;20.87;74.64;99175.50;1085657;54;19947;-76
2022/06/24 06:07:28;;;;;;;;;;;;;;;20.76;74.10;99184.44;1085580;54;21096;-76
2022/06/24 06:08:29;;;;;;;;;;;;;;;20.83;73.21;99166.97;1084743;54;19939;-76
2022/06/24 06:10:38;;;;;;;;;;;;;;;20.81;72.98;99169.13;1085399;54;20528;-76
2022/06/24 06:11:42;;;;;;;;;;;;;;;20.81;73.04;99176.41;1085195;54;19947;-75
2022/06/24 06:12:46;;;;;;;;;;;;;;;20.83;73.08;99172.41;1085503;54;19969;-76
2022/06/24 06:13:48;;;;;;;;;;;;;;;20.92;72.85;99175.63;1085938;54;20488;-75
2022/06/24 06:14:51;;;;;;;;;;;;;;;20.94;72.07;99173.50;1085398;54;19946;-75
2022/06/24 06:15:53;;;;;;;;;;;;;;;20.87;71.89;99173.59;1085142;54;19946;-75
2022/06/24 06:16:56;;;;;;;;;;;;;;;20.85;72.43;99174.91;1085967;31;20428;-75
2022/06/24 06:18:00;;;;;;;;;;;;;;;20.83;72.43;99177.84;1085394;54;20476;-75
2022/06/24 06:19:04;;;;;;;;;;;;;;;20.84;72.23;99170.53;1085015;54;19970;-75
2022/06/24 06:20:05;;;;;;;;;;;;;;;20.85;72.72;99174.91;1085522;54;19946;-76
2022/06/24 06:21:10;;;;;;;;;;;;;;;20.85;73.05;99175.72;1085333;39;20393;-77
2022/06/24 06:22:11;;;;;;;;;;;;;;;20.83;72.35;99171.59;1083962;54;19947;-77
2022/06/24 06:23:15;;;;;;;;;;;;;;;20.84;72.72;99179.50;1085154;54;20511;-76
2022/06/24 06:24:16;;;;;;;;;;;;;;;20.92;72.26;99172.91;1087525;39;20387;-76
2022/06/24 06:25:22;;;;;;;;;;;;;;;21.01;72.25;99176.94;1085896;54;20480;-76
2022/06/24 06:26:28;;;;;;;;;;;;;;;21.03;71.89;99182.97;1085547;54;19974;-77
2022/06/24 06:27:36;;;;;;;;;;;;;;;20.94;72.04;99183.53;1086035;39;20463;-79
2022/06/24 06:28:40;;;;;;;;;;;;;;;21.03;71.92;99176.69;1086077;54;19946;-77
2022/06/24 06:29:44;;;;;;;;;;;;;;;21.20;71.51;99182.25;1087139;54;20038;-76
2022/06/24 06:30:45;;;;;;;;;;;;;;;21.28;70.69;99183.81;1087109;54;19943;-78
2022/06/24 06:31:49;;;;;;;;;;;;;;;21.33;70.58;99175.75;1087857;54;19958;-77
2022/06/24 06:32:51;;;;;;;;;;;;;;;21.39;70.39;99177.53;1087864;54;19938;-77
2022/06/24 06:33:55;;;;;;;;;;;;;;;21.44;70.00;99176.84;1088028;54;19938;-78
2022/06/24 06:34:56;;;;;;;;;;;;;;;21.44;70.91;99182.25;1087945;54;19961;-79
2022/06/24 06:36:04;;;;;;;;;;;;;;;21.35;70.31;99179.88;1087151;54;19998;-79
2022/06/24 06:37:08;;;;;;;;;;;;;;;21.44;70.17;99185.78;1087109;54;19942;-76
2022/06/24 06:38:09;;;;;;;;;;;;;;;21.41;69.41;99182.72;1087083;54;19974;-77
2022/06/24 06:39:13;;;;;;;;;;;;;;;21.48;69.32;99194.31;1086791;54;19991;-77
2022/06/24 06:40:14;;;;;;;;;;;;;;;21.64;69.08;99188.16;1085751;54;19954;-75
2022/06/24 06:41:18;;;;;;;;;;;;;;;21.58;68.33;99188.28;1086483;54;19978;-75
2022/06/24 06:42:19;;;;;;;;;;;;;;;21.66;68.01;99187.94;1086903;54;20018;-76
2022/06/24 06:43:26;;;;;;;;;;;;;;;21.65;67.98;99189.81;1086448;54;19946;-75
2022/06/24 06:44:27;;;;;;;;;;;;;;;21.76;67.81;99184.59;1086845;54;20460;-76
2022/06/24 06:45:31;;;;;;;;;;;;;;;21.80;67.86;99186.59;1087978;54;19923;-78
2022/06/24 06:46:33;;;;;;;;;;;;;;;21.94;67.67;99183.63;1086808;54;19938;-76
2022/06/24 06:47:37;;;;;;;;;;;;;;;21.82;67.85;99189.09;1087584;54;19951;-79
2022/06/24 06:48:38;;;;;;;;;;;;;;;21.79;67.47;99189.56;1087726;54;19946;-77
2022/06/24 06:49:42;;;;;;;;;;;;;;;21.85;67.69;99187.78;1088030;54;19946;-77
2022/06/24 06:50:43;;;;;;;;;;;;;;;21.94;66.83;99180.91;1086352;54;19954;-76
2022/06/24 06:51:47;;;;;;;;;;;;;;;22.03;67.31;99182.19;1087882;39;20470;-74
2022/06/24 06:52:48;;;;;;;;;;;;;;;22.19;66.35;99180.59;1086751;54;20018;-75
2022/06/24 06:53:52;;;;;;;;;;;;;;;22.32;66.08;99184.06;1087020;54;19951;-75
2022/06/24 06:54:53;;;;;;;;;;;;;;;22.41;65.77;99182.66;1085875;54;19974;-74
2022/06/24 06:55:57;;;;;;;;;;;;;;;22.50;64.91;99183.09;1085977;54;19954;-77